sensor_id;sensor_type;location;lat;lon;timestamp;P1;durP1;ratioP1;P2;durP2;ratioP2
17382;SDS011;8809;51.892;8.384;2022-09-29T00:01:28;5.72;;;5.10;;
17382;SDS011;8809;51.892;8.384;2022-09-29T00:03:56;5.88;;;5.07;;
17382;SDS011;8809;51.892;8.384;2022-09-29T00:06:23;6.10;;;5.30;;
17382;SDS011;8809;51.892;8.384;2022-09-29T00:08:50;5.32;;;4.82;;
17382;SDS011;8809;51.892;8.384;2022-09-29T00:11:18;6.88;;;5.20;;
17382;SDS011;8809;51.892;8.384;2022-09-29T00:13:45;6.15;;;5.55;;
17382;SDS011;8809;51.892;8.384;2022-09-29T00:16:13;6.72;;;6.03;;
17382;SDS011;8809;51.892;8.384;2022-09-29T00:18:42;7.13;;;5.82;;
17382;SDS011;8809;51.892;8.384;2022-09-29T00:21:10;6.78;;;5.45;;
17382;SDS011;8809;51.892;8.384;2022-09-29T00:23:38;6.63;;;5.93;;
17382;SDS011;8809;51.892;8.384;2022-09-29T00:26:06;6.05;;;5.45;;
17382;SDS011;8809;51.892;8.384;2022-09-29T00:28:35;5.85;;;5.25;;
17382;SDS011;8809;51.892;8.384;2022-09-29T00:31:04;5.88;;;5.28;;
17382;SDS011;8809;51.892;8.384;2022-09-29T00:33:33;7.13;;;6.00;;
17382;SDS011;8809;51.892;8.384;2022-09-29T00:36:04;6.70;;;5.70;;
17382;SDS011;8809;51.892;8.384;2022-09-29T00:38:34;6.20;;;5.60;;
17382;SDS011;8809;51.892;8.384;2022-09-29T00:41:02;6.07;;;5.47;;
17382;SDS011;8809;51.892;8.384;2022-09-29T00:43:50;6.30;;;5.70;;
17382;SDS011;8809;51.892;8.384;2022-09-29T00:46:21;6.45;;;5.75;;
17382;SDS011;8809;51.892;8.384;2022-09-29T00:48:54;6.30;;;5.70;;
17382;SDS011;8809;51.892;8.384;2022-09-29T00:51:25;6.05;;;5.30;;
17382;SDS011;8809;51.892;8.384;2022-09-29T00:53:55;6.30;;;5.70;;
17382;SDS011;8809;51.892;8.384;2022-09-29T00:56:24;6.13;;;5.53;;
17382;SDS011;8809;51.892;8.384;2022-09-29T00:58:52;6.97;;;5.70;;
17382;SDS011;8809;51.892;8.384;2022-09-29T01:01:25;6.50;;;5.70;;
17382;SDS011;8809;51.892;8.384;2022-09-29T01:03:56;6.43;;;5.75;;
17382;SDS011;8809;51.892;8.384;2022-09-29T01:06:28;6.43;;;5.82;;
17382;SDS011;8809;51.892;8.384;2022-09-29T01:09:01;6.55;;;5.85;;
17382;SDS011;8809;51.892;8.384;2022-09-29T01:11:30;6.80;;;5.82;;
17382;SDS011;8809;51.892;8.384;2022-09-29T01:13:57;6.50;;;5.85;;
17382;SDS011;8809;51.892;8.384;2022-09-29T01:16:28;6.75;;;6.05;;
17382;SDS011;8809;51.892;8.384;2022-09-29T01:18:55;6.10;;;5.50;;
17382;SDS011;8809;51.892;8.384;2022-09-29T01:21:25;7.10;;;6.07;;
17382;SDS011;8809;51.892;8.384;2022-09-29T01:27:18;5.72;;;5.13;;
17382;SDS011;8809;51.892;8.384;2022-09-29T01:32:59;7.30;;;5.75;;
17382;SDS011;8809;51.892;8.384;2022-09-29T01:35:36;6.47;;;5.45;;
17382;SDS011;8809;51.892;8.384;2022-09-29T01:38:19;6.57;;;5.88;;
17382;SDS011;8809;51.892;8.384;2022-09-29T01:40:59;6.53;;;5.63;;
17382;SDS011;8809;51.892;8.384;2022-09-29T01:43:33;6.07;;;5.25;;
17382;SDS011;8809;51.892;8.384;2022-09-29T01:46:07;5.75;;;5.15;;
17382;SDS011;8809;51.892;8.384;2022-09-29T01:48:43;6.20;;;5.57;;
17382;SDS011;8809;51.892;8.384;2022-09-29T01:51:15;5.97;;;5.35;;
17382;SDS011;8809;51.892;8.384;2022-09-29T01:53:47;5.90;;;5.30;;
17382;SDS011;8809;51.892;8.384;2022-09-29T01:56:18;5.90;;;5.30;;
17382;SDS011;8809;51.892;8.384;2022-09-29T01:58:51;5.97;;;5.38;;
17382;SDS011;8809;51.892;8.384;2022-09-29T02:01:23;5.78;;;5.18;;
17382;SDS011;8809;51.892;8.384;2022-09-29T02:03:59;5.72;;;5.13;;
17382;SDS011;8809;51.892;8.384;2022-09-29T02:06:31;6.38;;;5.78;;
17382;SDS011;8809;51.892;8.384;2022-09-29T02:09:02;5.78;;;5.28;;
17382;SDS011;8809;51.892;8.384;2022-09-29T02:11:34;6.10;;;5.50;;
17382;SDS011;8809;51.892;8.384;2022-09-29T02:14:06;6.15;;;5.55;;
17382;SDS011;8809;51.892;8.384;2022-09-29T02:16:39;5.22;;;4.72;;
17382;SDS011;8809;51.892;8.384;2022-09-29T02:19:12;6.20;;;5.60;;
17382;SDS011;8809;51.892;8.384;2022-09-29T02:21:43;5.75;;;5.15;;
17382;SDS011;8809;51.892;8.384;2022-09-29T02:24:11;5.35;;;4.85;;
17382;SDS011;8809;51.892;8.384;2022-09-29T02:26:39;5.40;;;4.82;;
17382;SDS011;8809;51.892;8.384;2022-09-29T02:29:07;5.40;;;4.90;;
17382;SDS011;8809;51.892;8.384;2022-09-29T02:31:35;7.07;;;5.07;;
17382;SDS011;8809;51.892;8.384;2022-09-29T02:34:03;5.70;;;5.15;;
17382;SDS011;8809;51.892;8.384;2022-09-29T02:36:38;5.75;;;5.15;;
17382;SDS011;8809;51.892;8.384;2022-09-29T02:39:13;5.85;;;5.03;;
17382;SDS011;8809;51.892;8.384;2022-09-29T02:41:46;5.80;;;5.25;;
17382;SDS011;8809;51.892;8.384;2022-09-29T02:44:24;6.15;;;5.55;;
17382;SDS011;8809;51.892;8.384;2022-09-29T02:47:15;6.07;;;4.80;;
17382;SDS011;8809;51.892;8.384;2022-09-29T02:52:51;5.68;;;5.07;;
17382;SDS011;8809;51.892;8.384;2022-09-29T02:55:24;5.38;;;4.70;;
17382;SDS011;8809;51.892;8.384;2022-09-29T02:58:02;5.22;;;4.72;;
17382;SDS011;8809;51.892;8.384;2022-09-29T03:00:36;5.10;;;4.60;;
17382;SDS011;8809;51.892;8.384;2022-09-29T03:03:04;6.10;;;4.35;;
17382;SDS011;8809;51.892;8.384;2022-09-29T03:05:31;5.30;;;4.80;;
17382;SDS011;8809;51.892;8.384;2022-09-29T03:08:00;5.82;;;5.22;;
17382;SDS011;8809;51.892;8.384;2022-09-29T03:10:29;4.88;;;4.40;;
17382;SDS011;8809;51.892;8.384;2022-09-29T03:12:56;5.55;;;5.00;;
17382;SDS011;8809;51.892;8.384;2022-09-29T03:15:23;5.53;;;4.53;;
17382;SDS011;8809;51.892;8.384;2022-09-29T03:17:53;5.25;;;4.47;;
17382;SDS011;8809;51.892;8.384;2022-09-29T03:20:21;5.22;;;4.70;;
17382;SDS011;8809;51.892;8.384;2022-09-29T03:22:49;4.95;;;4.55;;
17382;SDS011;8809;51.892;8.384;2022-09-29T03:25:18;5.97;;;4.93;;
17382;SDS011;8809;51.892;8.384;2022-09-29T03:27:46;5.38;;;4.88;;
17382;SDS011;8809;51.892;8.384;2022-09-29T03:30:14;6.03;;;5.13;;
17382;SDS011;8809;51.892;8.384;2022-09-29T03:32:42;5.95;;;4.60;;
17382;SDS011;8809;51.892;8.384;2022-09-29T03:35:09;5.85;;;5.25;;
17382;SDS011;8809;51.892;8.384;2022-09-29T03:37:37;4.95;;;4.45;;
17382;SDS011;8809;51.892;8.384;2022-09-29T03:40:04;5.28;;;4.78;;
17382;SDS011;8809;51.892;8.384;2022-09-29T03:42:36;5.15;;;4.40;;
17382;SDS011;8809;51.892;8.384;2022-09-29T03:45:04;5.32;;;4.80;;
17382;SDS011;8809;51.892;8.384;2022-09-29T03:47:31;5.35;;;4.78;;
17382;SDS011;8809;51.892;8.384;2022-09-29T03:49:58;5.13;;;4.22;;
17382;SDS011;8809;51.892;8.384;2022-09-29T03:52:25;6.03;;;4.43;;
17382;SDS011;8809;51.892;8.384;2022-09-29T03:54:53;5.20;;;4.70;;
17382;SDS011;8809;51.892;8.384;2022-09-29T03:57:20;5.40;;;4.65;;
17382;SDS011;8809;51.892;8.384;2022-09-29T03:59:48;4.55;;;4.03;;
17382;SDS011;8809;51.892;8.384;2022-09-29T04:02:17;4.82;;;4.30;;
17382;SDS011;8809;51.892;8.384;2022-09-29T04:04:45;5.43;;;4.40;;
17382;SDS011;8809;51.892;8.384;2022-09-29T04:07:12;5.65;;;4.97;;
17382;SDS011;8809;51.892;8.384;2022-09-29T04:09:39;5.28;;;4.72;;
17382;SDS011;8809;51.892;8.384;2022-09-29T04:12:06;5.30;;;4.72;;
17382;SDS011;8809;51.892;8.384;2022-09-29T04:14:33;5.05;;;4.55;;
17382;SDS011;8809;51.892;8.384;2022-09-29T04:17:02;4.97;;;4.47;;
17382;SDS011;8809;51.892;8.384;2022-09-29T04:19:29;5.45;;;4.95;;
17382;SDS011;8809;51.892;8.384;2022-09-29T04:21:56;5.15;;;4.65;;
17382;SDS011;8809;51.892;8.384;2022-09-29T04:24:23;4.80;;;4.30;;
17382;SDS011;8809;51.892;8.384;2022-09-29T04:26:50;5.60;;;4.70;;
17382;SDS011;8809;51.892;8.384;2022-09-29T04:29:17;5.72;;;5.13;;
17382;SDS011;8809;51.892;8.384;2022-09-29T04:31:44;5.40;;;4.90;;
17382;SDS011;8809;51.892;8.384;2022-09-29T04:34:13;5.18;;;4.68;;
17382;SDS011;8809;51.892;8.384;2022-09-29T04:36:40;5.15;;;4.55;;
17382;SDS011;8809;51.892;8.384;2022-09-29T04:39:07;5.30;;;4.50;;
17382;SDS011;8809;51.892;8.384;2022-09-29T04:41:34;6.00;;;4.85;;
17382;SDS011;8809;51.892;8.384;2022-09-29T04:44:04;4.97;;;4.30;;
17382;SDS011;8809;51.892;8.384;2022-09-29T04:46:31;5.15;;;4.65;;
17382;SDS011;8809;51.892;8.384;2022-09-29T04:48:58;5.88;;;4.60;;
17382;SDS011;8809;51.892;8.384;2022-09-29T04:51:27;4.93;;;4.25;;
17382;SDS011;8809;51.892;8.384;2022-09-29T04:53:54;5.40;;;4.85;;
17382;SDS011;8809;51.892;8.384;2022-09-29T04:56:21;5.25;;;4.45;;
17382;SDS011;8809;51.892;8.384;2022-09-29T04:58:48;5.45;;;4.30;;
17382;SDS011;8809;51.892;8.384;2022-09-29T05:01:16;5.60;;;4.95;;
17382;SDS011;8809;51.892;8.384;2022-09-29T05:03:43;5.15;;;4.38;;
17382;SDS011;8809;51.892;8.384;2022-09-29T05:06:10;6.15;;;5.05;;
17382;SDS011;8809;51.892;8.384;2022-09-29T05:08:39;5.53;;;4.40;;
17382;SDS011;8809;51.892;8.384;2022-09-29T05:11:06;5.03;;;4.53;;
17382;SDS011;8809;51.892;8.384;2022-09-29T05:13:34;5.10;;;4.38;;
17382;SDS011;8809;51.892;8.384;2022-09-29T05:16:02;5.20;;;4.30;;
17382;SDS011;8809;51.892;8.384;2022-09-29T05:18:30;4.18;;;3.72;;
17382;SDS011;8809;51.892;8.384;2022-09-29T05:21:01;5.18;;;4.60;;
17382;SDS011;8809;51.892;8.384;2022-09-29T05:23:29;5.30;;;4.13;;
17382;SDS011;8809;51.892;8.384;2022-09-29T05:26:00;4.75;;;4.22;;
17382;SDS011;8809;51.892;8.384;2022-09-29T05:28:28;5.20;;;4.60;;
17382;SDS011;8809;51.892;8.384;2022-09-29T05:30:59;5.85;;;4.80;;
17382;SDS011;8809;51.892;8.384;2022-09-29T05:33:27;5.93;;;4.60;;
17382;SDS011;8809;51.892;8.384;2022-09-29T05:35:55;4.82;;;4.30;;
17382;SDS011;8809;51.892;8.384;2022-09-29T05:38:22;5.53;;;4.25;;
17382;SDS011;8809;51.892;8.384;2022-09-29T05:40:50;6.05;;;4.60;;
17382;SDS011;8809;51.892;8.384;2022-09-29T05:43:19;6.30;;;4.85;;
17382;SDS011;8809;51.892;8.384;2022-09-29T05:45:46;5.88;;;4.45;;
17382;SDS011;8809;51.892;8.384;2022-09-29T05:48:13;5.78;;;4.47;;
17382;SDS011;8809;51.892;8.384;2022-09-29T05:50:41;6.18;;;4.38;;
17382;SDS011;8809;51.892;8.384;2022-09-29T05:53:09;6.70;;;5.00;;
17382;SDS011;8809;51.892;8.384;2022-09-29T05:55:37;5.85;;;4.90;;
17382;SDS011;8809;51.892;8.384;2022-09-29T05:58:05;5.78;;;4.47;;
17382;SDS011;8809;51.892;8.384;2022-09-29T06:00:34;6.20;;;5.03;;
17382;SDS011;8809;51.892;8.384;2022-09-29T06:03:01;6.20;;;5.20;;
17382;SDS011;8809;51.892;8.384;2022-09-29T06:05:29;5.70;;;4.78;;
17382;SDS011;8809;51.892;8.384;2022-09-29T06:07:57;5.85;;;4.78;;
17382;SDS011;8809;51.892;8.384;2022-09-29T06:10:28;6.95;;;4.93;;
17382;SDS011;8809;51.892;8.384;2022-09-29T06:12:56;6.00;;;5.25;;
17382;SDS011;8809;51.892;8.384;2022-09-29T06:15:23;6.32;;;4.90;;
17382;SDS011;8809;51.892;8.384;2022-09-29T06:17:55;6.13;;;4.65;;
17382;SDS011;8809;51.892;8.384;2022-09-29T06:20:22;5.72;;;4.40;;
17382;SDS011;8809;51.892;8.384;2022-09-29T06:22:52;6.35;;;5.20;;
17382;SDS011;8809;51.892;8.384;2022-09-29T06:25:19;5.60;;;4.32;;
17382;SDS011;8809;51.892;8.384;2022-09-29T06:27:46;4.57;;;3.92;;
17382;SDS011;8809;51.892;8.384;2022-09-29T06:30:16;5.47;;;4.43;;
17382;SDS011;8809;51.892;8.384;2022-09-29T06:32:43;5.03;;;4.00;;
17382;SDS011;8809;51.892;8.384;2022-09-29T06:35:12;4.45;;;3.60;;
17382;SDS011;8809;51.892;8.384;2022-09-29T06:37:56;4.03;;;3.40;;
17382;SDS011;8809;51.892;8.384;2022-09-29T06:40:24;4.10;;;3.40;;
17382;SDS011;8809;51.892;8.384;2022-09-29T06:42:52;4.32;;;3.45;;
17382;SDS011;8809;51.892;8.384;2022-09-29T06:45:20;3.67;;;3.20;;
17382;SDS011;8809;51.892;8.384;2022-09-29T06:47:47;4.25;;;3.28;;
17382;SDS011;8809;51.892;8.384;2022-09-29T06:50:16;3.33;;;3.03;;
17382;SDS011;8809;51.892;8.384;2022-09-29T06:52:43;3.55;;;3.10;;
17382;SDS011;8809;51.892;8.384;2022-09-29T06:55:11;3.30;;;2.90;;
17382;SDS011;8809;51.892;8.384;2022-09-29T06:57:38;3.67;;;3.10;;
17382;SDS011;8809;51.892;8.384;2022-09-29T07:00:10;3.53;;;2.95;;
17382;SDS011;8809;51.892;8.384;2022-09-29T07:02:43;3.78;;;3.17;;
17382;SDS011;8809;51.892;8.384;2022-09-29T07:05:11;3.40;;;3.10;;
17382;SDS011;8809;51.892;8.384;2022-09-29T07:07:40;2.92;;;2.63;;
17382;SDS011;8809;51.892;8.384;2022-09-29T07:10:08;3.45;;;2.92;;
17382;SDS011;8809;51.892;8.384;2022-09-29T07:12:35;3.47;;;3.17;;
17382;SDS011;8809;51.892;8.384;2022-09-29T07:15:02;3.78;;;3.22;;
17382;SDS011;8809;51.892;8.384;2022-09-29T07:17:30;3.92;;;3.33;;
17382;SDS011;8809;51.892;8.384;2022-09-29T07:19:59;4.57;;;3.40;;
17382;SDS011;8809;51.892;8.384;2022-09-29T07:22:26;3.38;;;2.97;;
17382;SDS011;8809;51.892;8.384;2022-09-29T07:24:54;4.22;;;3.47;;
17382;SDS011;8809;51.892;8.384;2022-09-29T07:27:22;5.13;;;3.88;;
17382;SDS011;8809;51.892;8.384;2022-09-29T07:29:49;4.78;;;4.05;;
17382;SDS011;8809;51.892;8.384;2022-09-29T07:32:16;4.35;;;3.80;;
17382;SDS011;8809;51.892;8.384;2022-09-29T07:34:44;3.95;;;3.55;;
17382;SDS011;8809;51.892;8.384;2022-09-29T07:37:11;4.45;;;3.50;;
17382;SDS011;8809;51.892;8.384;2022-09-29T07:39:38;4.70;;;3.85;;
17382;SDS011;8809;51.892;8.384;2022-09-29T07:42:06;5.40;;;4.32;;
17382;SDS011;8809;51.892;8.384;2022-09-29T07:44:33;6.35;;;4.60;;
17382;SDS011;8809;51.892;8.384;2022-09-29T07:47:01;6.03;;;4.82;;
17382;SDS011;8809;51.892;8.384;2022-09-29T07:49:28;6.18;;;4.90;;
17382;SDS011;8809;51.892;8.384;2022-09-29T07:51:55;6.28;;;4.72;;
17382;SDS011;8809;51.892;8.384;2022-09-29T07:54:23;7.75;;;5.50;;
17382;SDS011;8809;51.892;8.384;2022-09-29T07:56:51;6.35;;;4.68;;
17382;SDS011;8809;51.892;8.384;2022-09-29T07:59:19;7.47;;;5.53;;
17382;SDS011;8809;51.892;8.384;2022-09-29T08:01:46;7.38;;;5.25;;
17382;SDS011;8809;51.892;8.384;2022-09-29T08:04:13;6.20;;;5.07;;
17382;SDS011;8809;51.892;8.384;2022-09-29T08:06:41;7.13;;;4.85;;
17382;SDS011;8809;51.892;8.384;2022-09-29T08:09:08;8.07;;;5.35;;
17382;SDS011;8809;51.892;8.384;2022-09-29T08:11:36;8.05;;;5.70;;
17382;SDS011;8809;51.892;8.384;2022-09-29T08:14:04;8.52;;;6.28;;
17382;SDS011;8809;51.892;8.384;2022-09-29T08:16:34;7.22;;;5.50;;
17382;SDS011;8809;51.892;8.384;2022-09-29T08:19:02;8.90;;;6.18;;
17382;SDS011;8809;51.892;8.384;2022-09-29T08:21:30;10.27;;;6.85;;
17382;SDS011;8809;51.892;8.384;2022-09-29T08:24:01;8.10;;;5.95;;
17382;SDS011;8809;51.892;8.384;2022-09-29T08:26:30;9.20;;;6.50;;
17382;SDS011;8809;51.892;8.384;2022-09-29T08:29:00;7.97;;;5.97;;
17382;SDS011;8809;51.892;8.384;2022-09-29T08:31:30;8.43;;;6.00;;
17382;SDS011;8809;51.892;8.384;2022-09-29T08:33:59;8.77;;;6.38;;
17382;SDS011;8809;51.892;8.384;2022-09-29T08:36:26;7.63;;;6.13;;
17382;SDS011;8809;51.892;8.384;2022-09-29T08:38:54;7.97;;;6.35;;
17382;SDS011;8809;51.892;8.384;2022-09-29T08:41:28;10.43;;;7.40;;
17382;SDS011;8809;51.892;8.384;2022-09-29T08:44:02;10.52;;;7.82;;
17382;SDS011;8809;51.892;8.384;2022-09-29T08:46:39;10.38;;;7.18;;
17382;SDS011;8809;51.892;8.384;2022-09-29T08:49:13;11.45;;;8.75;;
17382;SDS011;8809;51.892;8.384;2022-09-29T08:51:46;15.50;;;10.10;;
17382;SDS011;8809;51.892;8.384;2022-09-29T08:54:20;13.80;;;10.38;;
17382;SDS011;8809;51.892;8.384;2022-09-29T08:56:53;16.15;;;11.35;;
17382;SDS011;8809;51.892;8.384;2022-09-29T08:59:20;15.90;;;11.50;;
17382;SDS011;8809;51.892;8.384;2022-09-29T09:01:53;16.95;;;12.48;;
17382;SDS011;8809;51.892;8.384;2022-09-29T09:04:34;18.27;;;13.82;;
17382;SDS011;8809;51.892;8.384;2022-09-29T09:07:12;15.68;;;11.77;;
17382;SDS011;8809;51.892;8.384;2022-09-29T09:09:53;17.38;;;12.57;;
17382;SDS011;8809;51.892;8.384;2022-09-29T09:12:37;14.32;;;11.57;;
17382;SDS011;8809;51.892;8.384;2022-09-29T09:15:35;15.43;;;11.57;;
17382;SDS011;8809;51.892;8.384;2022-09-29T09:21:18;15.98;;;11.43;;
17382;SDS011;8809;51.892;8.384;2022-09-29T09:23:52;16.10;;;11.60;;
17382;SDS011;8809;51.892;8.384;2022-09-29T09:26:24;12.25;;;9.82;;
17382;SDS011;8809;51.892;8.384;2022-09-29T09:28:59;12.88;;;9.57;;
17382;SDS011;8809;51.892;8.384;2022-09-29T09:31:32;14.98;;;11.10;;
17382;SDS011;8809;51.892;8.384;2022-09-29T09:34:05;12.48;;;9.35;;
17382;SDS011;8809;51.892;8.384;2022-09-29T09:36:40;11.88;;;9.60;;
17382;SDS011;8809;51.892;8.384;2022-09-29T09:39:17;10.38;;;9.10;;
17382;SDS011;8809;51.892;8.384;2022-09-29T09:41:50;11.57;;;8.65;;
17382;SDS011;8809;51.892;8.384;2022-09-29T09:44:21;10.65;;;8.05;;
17382;SDS011;8809;51.892;8.384;2022-09-29T09:46:53;10.50;;;8.55;;
17382;SDS011;8809;51.892;8.384;2022-09-29T09:49:24;14.15;;;10.88;;
17382;SDS011;8809;51.892;8.384;2022-09-29T09:51:58;13.35;;;9.77;;
17382;SDS011;8809;51.892;8.384;2022-09-29T09:54:32;10.30;;;8.43;;
17382;SDS011;8809;51.892;8.384;2022-09-29T10:00:06;8.23;;;6.93;;
17382;SDS011;8809;51.892;8.384;2022-09-29T10:02:43;10.15;;;9.05;;
17382;SDS011;8809;51.892;8.384;2022-09-29T10:05:28;9.30;;;7.90;;
17382;SDS011;8809;51.892;8.384;2022-09-29T10:08:02;8.05;;;6.82;;
17382;SDS011;8809;51.892;8.384;2022-09-29T10:10:31;8.43;;;7.55;;
17382;SDS011;8809;51.892;8.384;2022-09-29T10:13:00;8.88;;;7.82;;
17382;SDS011;8809;51.892;8.384;2022-09-29T10:15:39;8.20;;;7.28;;
17382;SDS011;8809;51.892;8.384;2022-09-29T10:18:16;8.27;;;7.35;;
17382;SDS011;8809;51.892;8.384;2022-09-29T10:20:51;7.50;;;6.53;;
17382;SDS011;8809;51.892;8.384;2022-09-29T10:23:23;9.75;;;8.63;;
17382;SDS011;8809;51.892;8.384;2022-09-29T10:26:11;7.70;;;7.00;;
17382;SDS011;8809;51.892;8.384;2022-09-29T10:28:46;6.70;;;6.00;;
17382;SDS011;8809;51.892;8.384;2022-09-29T10:31:20;8.48;;;5.90;;
17382;SDS011;8809;51.892;8.384;2022-09-29T10:33:50;7.47;;;6.13;;
17382;SDS011;8809;51.892;8.384;2022-09-29T10:36:20;7.85;;;5.75;;
17382;SDS011;8809;51.892;8.384;2022-09-29T10:38:50;7.35;;;6.50;;
17382;SDS011;8809;51.892;8.384;2022-09-29T10:41:18;7.75;;;6.95;;
17382;SDS011;8809;51.892;8.384;2022-09-29T10:43:46;6.00;;;5.40;;
17382;SDS011;8809;51.892;8.384;2022-09-29T10:46:34;5.40;;;4.90;;
17382;SDS011;8809;51.892;8.384;2022-09-29T10:49:11;5.25;;;4.75;;
17382;SDS011;8809;51.892;8.384;2022-09-29T10:51:41;4.75;;;4.25;;
17382;SDS011;8809;51.892;8.384;2022-09-29T10:54:22;4.57;;;4.18;;
17382;SDS011;8809;51.892;8.384;2022-09-29T10:56:51;4.95;;;4.30;;
17382;SDS011;8809;51.892;8.384;2022-09-29T10:59:19;4.78;;;4.38;;
17382;SDS011;8809;51.892;8.384;2022-09-29T11:01:49;6.00;;;5.40;;
17382;SDS011;8809;51.892;8.384;2022-09-29T11:04:21;4.50;;;4.10;;
17382;SDS011;8809;51.892;8.384;2022-09-29T11:06:51;3.83;;;3.53;;
17382;SDS011;8809;51.892;8.384;2022-09-29T11:09:26;4.20;;;3.65;;
17382;SDS011;8809;51.892;8.384;2022-09-29T11:11:56;4.00;;;3.55;;
17382;SDS011;8809;51.892;8.384;2022-09-29T11:14:26;3.67;;;3.38;;
17382;SDS011;8809;51.892;8.384;2022-09-29T11:16:57;3.60;;;3.20;;
17382;SDS011;8809;51.892;8.384;2022-09-29T11:19:25;2.83;;;2.63;;
17382;SDS011;8809;51.892;8.384;2022-09-29T11:27:57;4.75;;;4.25;;
17382;SDS011;8809;51.892;8.384;2022-09-29T11:30:39;5.45;;;4.00;;
17382;SDS011;8809;51.892;8.384;2022-09-29T11:33:17;4.20;;;3.78;;
17382;SDS011;8809;51.892;8.384;2022-09-29T11:35:56;3.60;;;3.30;;
17382;SDS011;8809;51.892;8.384;2022-09-29T11:38:36;3.72;;;3.42;;
17382;SDS011;8809;51.892;8.384;2022-09-29T11:44:24;5.45;;;4.88;;
17382;SDS011;8809;51.892;8.384;2022-09-29T11:47:06;4.38;;;3.92;;
17382;SDS011;8809;51.892;8.384;2022-09-29T11:49:50;4.60;;;4.20;;
17382;SDS011;8809;51.892;8.384;2022-09-29T11:52:40;4.18;;;3.78;;
17382;SDS011;8809;51.892;8.384;2022-09-29T11:55:31;5.28;;;4.15;;
17382;SDS011;8809;51.892;8.384;2022-09-29T11:58:16;5.07;;;4.28;;
17382;SDS011;8809;51.892;8.384;2022-09-29T12:00:59;4.30;;;3.88;;
17382;SDS011;8809;51.892;8.384;2022-09-29T12:03:40;3.53;;;3.22;;
17382;SDS011;8809;51.892;8.384;2022-09-29T12:06:22;4.35;;;3.95;;
17382;SDS011;8809;51.892;8.384;2022-09-29T12:09:14;4.03;;;3.63;;
17382;SDS011;8809;51.892;8.384;2022-09-29T12:11:53;3.65;;;3.35;;
17382;SDS011;8809;51.892;8.384;2022-09-29T12:14:34;6.22;;;4.63;;
17382;SDS011;8809;51.892;8.384;2022-09-29T12:17:10;3.97;;;3.45;;
17382;SDS011;8809;51.892;8.384;2022-09-29T12:19:41;4.90;;;4.47;;
17382;SDS011;8809;51.892;8.384;2022-09-29T12:22:12;5.13;;;4.53;;
17382;SDS011;8809;51.892;8.384;2022-09-29T12:24:44;4.82;;;4.22;;
17382;SDS011;8809;51.892;8.384;2022-09-29T12:27:15;3.95;;;3.38;;
17382;SDS011;8809;51.892;8.384;2022-09-29T12:29:47;4.43;;;3.88;;
17382;SDS011;8809;51.892;8.384;2022-09-29T12:32:20;4.15;;;3.60;;
17382;SDS011;8809;51.892;8.384;2022-09-29T12:34:54;3.72;;;3.42;;
17382;SDS011;8809;51.892;8.384;2022-09-29T12:37:26;3.22;;;2.92;;
17382;SDS011;8809;51.892;8.384;2022-09-29T12:40:02;3.20;;;2.90;;
17382;SDS011;8809;51.892;8.384;2022-09-29T12:42:42;2.72;;;2.53;;
17382;SDS011;8809;51.892;8.384;2022-09-29T12:45:24;2.58;;;2.38;;
17382;SDS011;8809;51.892;8.384;2022-09-29T12:48:00;2.40;;;2.20;;
17382;SDS011;8809;51.892;8.384;2022-09-29T12:50:41;2.40;;;2.20;;
17382;SDS011;8809;51.892;8.384;2022-09-29T12:53:16;2.13;;;1.92;;
17382;SDS011;8809;51.892;8.384;2022-09-29T12:55:48;3.58;;;3.28;;
17382;SDS011;8809;51.892;8.384;2022-09-29T12:58:21;3.80;;;3.40;;
17382;SDS011;8809;51.892;8.384;2022-09-29T13:00:57;6.32;;;4.80;;
17382;SDS011;8809;51.892;8.384;2022-09-29T13:06:44;4.70;;;4.20;;
17382;SDS011;8809;51.892;8.384;2022-09-29T13:09:39;4.82;;;3.75;;
17382;SDS011;8809;51.892;8.384;2022-09-29T13:12:30;4.10;;;3.70;;
17382;SDS011;8809;51.892;8.384;2022-09-29T13:15:17;4.00;;;3.60;;
17382;SDS011;8809;51.892;8.384;2022-09-29T13:18:11;4.18;;;3.63;;
17382;SDS011;8809;51.892;8.384;2022-09-29T13:20:59;5.25;;;4.28;;
17382;SDS011;8809;51.892;8.384;2022-09-29T13:23:39;4.82;;;3.85;;
17382;SDS011;8809;51.892;8.384;2022-09-29T13:26:36;4.00;;;3.17;;
17382;SDS011;8809;51.892;8.384;2022-09-29T13:29:16;3.90;;;3.50;;
17382;SDS011;8809;51.892;8.384;2022-09-29T13:31:45;4.78;;;3.72;;
17382;SDS011;8809;51.892;8.384;2022-09-29T13:34:21;5.05;;;4.55;;
17382;SDS011;8809;51.892;8.384;2022-09-29T13:36:55;5.78;;;4.45;;
17382;SDS011;8809;51.892;8.384;2022-09-29T13:39:32;4.07;;;3.67;;
17382;SDS011;8809;51.892;8.384;2022-09-29T13:51:26;3.30;;;3.00;;
17382;SDS011;8809;51.892;8.384;2022-09-29T13:54:25;2.55;;;2.35;;
17382;SDS011;8809;51.892;8.384;2022-09-29T13:57:03;3.15;;;2.42;;
17382;SDS011;8809;51.892;8.384;2022-09-29T13:59:45;2.33;;;2.13;;
17382;SDS011;8809;51.892;8.384;2022-09-29T14:02:29;1.98;;;1.73;;
17382;SDS011;8809;51.892;8.384;2022-09-29T14:05:00;2.00;;;1.90;;
17382;SDS011;8809;51.892;8.384;2022-09-29T14:07:36;1.70;;;1.60;;
17382;SDS011;8809;51.892;8.384;2022-09-29T14:10:18;2.22;;;1.75;;
17382;SDS011;8809;51.892;8.384;2022-09-29T14:12:52;2.67;;;1.67;;
17382;SDS011;8809;51.892;8.384;2022-09-29T14:15:23;1.30;;;1.20;;
17382;SDS011;8809;51.892;8.384;2022-09-29T14:17:53;2.88;;;2.10;;
17382;SDS011;8809;51.892;8.384;2022-09-29T14:20:25;1.90;;;1.63;;
17382;SDS011;8809;51.892;8.384;2022-09-29T14:22:59;2.47;;;2.25;;
17382;SDS011;8809;51.892;8.384;2022-09-29T14:25:29;2.15;;;1.95;;
17382;SDS011;8809;51.892;8.384;2022-09-29T14:28:02;1.98;;;1.77;;
17382;SDS011;8809;51.892;8.384;2022-09-29T14:30:40;2.53;;;2.33;;
17382;SDS011;8809;51.892;8.384;2022-09-29T14:33:12;2.53;;;2.10;;
17382;SDS011;8809;51.892;8.384;2022-09-29T14:35:45;2.05;;;1.77;;
17382;SDS011;8809;51.892;8.384;2022-09-29T14:38:21;1.80;;;1.70;;
17382;SDS011;8809;51.892;8.384;2022-09-29T14:40:53;2.13;;;1.92;;
17382;SDS011;8809;51.892;8.384;2022-09-29T14:43:22;1.80;;;1.70;;
17382;SDS011;8809;51.892;8.384;2022-09-29T14:45:59;2.40;;;1.80;;
17382;SDS011;8809;51.892;8.384;2022-09-29T14:49:14;2.70;;;2.50;;
17382;SDS011;8809;51.892;8.384;2022-09-29T14:52:13;2.00;;;1.80;;
17382;SDS011;8809;51.892;8.384;2022-09-29T14:54:52;2.17;;;1.98;;
17382;SDS011;8809;51.892;8.384;2022-09-29T14:57:31;2.28;;;1.73;;
17382;SDS011;8809;51.892;8.384;2022-09-29T15:00:15;1.67;;;1.38;;
17382;SDS011;8809;51.892;8.384;2022-09-29T15:02:45;1.42;;;1.33;;
17382;SDS011;8809;51.892;8.384;2022-09-29T15:05:22;1.50;;;1.40;;
17382;SDS011;8809;51.892;8.384;2022-09-29T15:07:51;1.77;;;1.38;;
17382;SDS011;8809;51.892;8.384;2022-09-29T15:10:22;2.65;;;2.08;;
17382;SDS011;8809;51.892;8.384;2022-09-29T15:12:51;2.25;;;1.98;;
17382;SDS011;8809;51.892;8.384;2022-09-29T15:15:31;1.80;;;1.70;;
17382;SDS011;8809;51.892;8.384;2022-09-29T15:18:04;1.77;;;1.60;;
17382;SDS011;8809;51.892;8.384;2022-09-29T15:20:50;1.85;;;1.60;;
17382;SDS011;8809;51.892;8.384;2022-09-29T15:23:28;2.00;;;1.90;;
17382;SDS011;8809;51.892;8.384;2022-09-29T15:26:12;4.50;;;2.05;;
17382;SDS011;8809;51.892;8.384;2022-09-29T15:28:40;1.65;;;1.55;;
17382;SDS011;8809;51.892;8.384;2022-09-29T15:31:09;1.63;;;1.52;;
17382;SDS011;8809;51.892;8.384;2022-09-29T15:33:41;2.15;;;1.95;;
17382;SDS011;8809;51.892;8.384;2022-09-29T15:36:15;1.60;;;1.50;;
17382;SDS011;8809;51.892;8.384;2022-09-29T15:38:44;2.17;;;1.67;;
17382;SDS011;8809;51.892;8.384;2022-09-29T15:41:17;1.90;;;1.80;;
17382;SDS011;8809;51.892;8.384;2022-09-29T15:43:54;1.40;;;1.30;;
17382;SDS011;8809;51.892;8.384;2022-09-29T15:46:23;2.63;;;1.77;;
17382;SDS011;8809;51.892;8.384;2022-09-29T15:49:09;1.60;;;1.48;;
17382;SDS011;8809;51.892;8.384;2022-09-29T15:51:42;1.42;;;1.33;;
17382;SDS011;8809;51.892;8.384;2022-09-29T15:54:11;1.40;;;1.30;;
17382;SDS011;8809;51.892;8.384;2022-09-29T15:56:41;1.83;;;1.50;;
17382;SDS011;8809;51.892;8.384;2022-09-29T15:59:38;1.58;;;1.48;;
17382;SDS011;8809;51.892;8.384;2022-09-29T16:02:11;1.95;;;1.48;;
17382;SDS011;8809;51.892;8.384;2022-09-29T16:04:43;1.52;;;1.35;;
17382;SDS011;8809;51.892;8.384;2022-09-29T16:07:17;1.50;;;1.40;;
17382;SDS011;8809;51.892;8.384;2022-09-29T16:09:48;2.17;;;1.60;;